Terminal Aerodrome Forecast
Issued by NWS Sterling, VA

Current Version | Previous Version | Text Only | Print | Product List | Glossary Off
Versions: 1 2 3 4 5 6 7 8 9 10 11 12 13 14 15 16 17 18 19 20 21 22 23 24 25 26 27

716
FTUS41 KLWX 241359 AAA
TAFIAD
TAF AMD
KIAD 241359Z 2414/2518 11015G19KT P6SM VCSH OVC040
     FM241600 09008G16KT 5SM -RA BKN025 OVC050
     FM241800 09011G19KT 3SM RA SCT008 BKN015 OVC050
     FM250200 07008KT 3SM -RA BR BKN008 OVC015
     FM250800 VRB04KT 3SM -RA BR BKN008 OVC015
     FM251400 33008KT P6SM BKN015 OVC050=

USA.gov is the U.S. government's official web portal to all federal, state and local government web resources and services.